Time;durP1;ratioP1;P1;durP2;ratioP2;P2;SDS_P1;SDS_P2;PMS_P1;PMS_P2;Temp;Humidity;BMP_temperature;BMP_pressure;BME280_temperature;BME280_humidity;BME280_pressure;Samples;Min_cycle;Max_cycle;Signal;HPM_P1;HPM_P2
2021/08/25 00:00:29;;;;;;;6.50;5.78;;;14.90;99.90;;;;;;6157453;28;20034;-81
2021/08/25 00:03:29;;;;;;;7.60;6.53;;;15.10;99.90;;;;;;6156985;28;20031;-80
2021/08/25 00:06:30;;;;;;;7.38;6.65;;;15.20;99.90;;;;;;6156678;28;20365;-81
2021/08/25 00:09:31;;;;;;;6.78;6.07;;;14.90;99.90;;;;;;6174317;28;20019;-80
2021/08/25 00:12:31;;;;;;;7.75;6.07;;;14.90;99.90;;;;;;6174022;28;20468;-79
2021/08/25 00:15:34;;;;;;;7.20;6.40;;;15.10;99.90;;;;;;6157159;28;20463;-80
2021/08/25 00:18:35;;;;;;;6.63;5.95;;;14.80;99.90;;;;;;6173961;28;20026;-79
2021/08/25 00:21:35;;;;;;;6.68;6.03;;;15.00;99.90;;;;;;6174057;28;20714;-81
2021/08/25 00:24:36;;;;;;;8.18;6.63;;;;;;;;;;6156742;28;20450;-80
2021/08/25 00:27:37;;;;;;;7.38;6.68;;;14.80;99.90;;;;;;6174305;28;20080;-82
2021/08/25 00:30:38;;;;;;;8.52;6.80;;;;;;;;;;6175766;28;20031;-80
2021/08/25 00:33:39;;;;;;;7.40;6.63;;;14.50;99.90;;;;;;6178479;28;20018;-80
2021/08/25 00:36:39;;;;;;;7.35;6.63;;;14.30;99.90;;;;;;6178264;28;20031;-83
2021/08/25 00:39:40;;;;;;;10.15;7.00;;;14.40;99.90;;;;;;6178360;28;20385;-83
2021/08/25 00:42:41;;;;;;;7.88;7.07;;;;;;;;;;6160914;28;20080;-83
2021/08/25 00:45:42;;;;;;;7.70;6.22;;;14.10;99.90;;;;;;6178457;28;20014;-80
2021/08/25 00:48:49;;;;;;;7.07;6.37;;;14.00;99.90;;;;;;6177779;28;20054;-80
2021/08/25 00:51:50;;;;;;;7.32;6.60;;;14.10;99.90;;;;;;6160470;28;20452;-82
2021/08/25 00:54:51;;;;;;;7.47;6.65;;;14.10;99.90;;;;;;6177940;28;20033;-82
2021/08/25 00:57:52;;;;;;;8.18;7.38;;;14.10;99.90;;;;;;6160380;28;20034;-80
2021/08/25 01:01:02;;;;;;;7.22;6.53;;;13.80;99.90;;;;;;6160399;28;20019;-84
2021/08/25 01:04:06;;;;;;;7.78;6.82;;;13.90;99.90;;;;;;6161212;28;20035;-82
2021/08/25 01:07:07;;;;;;;9.25;6.95;;;13.80;99.90;;;;;;6160448;28;20469;-82
2021/08/25 01:10:29;;;;;;;7.30;6.47;;;13.80;99.90;;;;;;6160190;28;20030;-82
2021/08/25 01:13:30;;;;;;;8.93;6.80;;;13.80;99.90;;;;;;6160336;28;20059;-80
2021/08/25 01:16:30;;;;;;;7.15;6.45;;;13.70;99.90;;;;;;6177470;28;20077;-80
2021/08/25 01:20:00;;;;;;;9.40;7.30;;;13.90;99.90;;;;;;6177439;28;20053;-80
2021/08/25 01:23:01;;;;;;;7.25;6.32;;;14.00;99.90;;;;;;6153175;28;20039;-79
2021/08/25 01:26:02;;;;;;;7.65;6.93;;;;;;;;;;6160201;28;20082;-82
2021/08/25 01:29:04;;;;;;;7.13;6.40;;;13.90;99.90;;;;;;6159782;28;20033;-82
2021/08/25 01:32:05;;;;;;;7.22;6.53;;;13.50;99.90;;;;;;6159816;28;20381;-79
2021/08/25 01:35:06;;;;;;;6.45;5.85;;;13.70;99.90;;;;;;6176643;28;20031;-82
2021/08/25 01:38:06;;;;;;;7.15;6.45;;;13.50;99.90;;;;;;6176631;28;20090;-82
2021/08/25 01:41:07;;;;;;;8.63;7.68;;;13.80;99.90;;;;;;6176122;28;20033;-83
2021/08/25 01:44:07;;;;;;;6.72;6.13;;;13.80;99.90;;;;;;6158784;28;20093;-80
2021/08/25 01:47:08;;;;;;;10.52;7.20;;;13.90;99.90;;;;;;6159387;28;20034;-80
2021/08/25 01:50:09;;;;;;;7.88;7.07;;;14.00;99.90;;;;;;6176442;28;20075;-80
2021/08/25 01:53:12;;;;;;;8.43;7.28;;;13.70;99.90;;;;;;6176824;28;20073;-79
2021/08/25 01:56:13;;;;;;;8.75;7.70;;;14.10;99.90;;;;;;6176281;28;20027;-83
2021/08/25 01:59:14;;;;;;;8.85;7.70;;;;;;;;;;6159115;28;20086;-83
2021/08/25 02:02:14;;;;;;;8.57;7.70;;;13.90;99.90;;;;;;6176112;28;20023;-80
2021/08/25 02:05:15;;;;;;;43.22;25.70;;;14.30;99.90;;;;;;6176027;28;20476;-85
2021/08/25 02:08:16;;;;;;;12.80;10.35;;;14.00;99.90;;;;;;6175217;28;20019;-79
2021/08/25 02:11:16;;;;;;;7.88;7.05;;;14.20;99.90;;;;;;6176238;28;20018;-84
2021/08/25 02:14:17;;;;;;;7.35;6.65;;;14.30;99.90;;;;;;6175956;28;20027;-79
2021/08/25 02:17:17;;;;;;;8.27;7.38;;;14.50;99.90;;;;;;6175767;28;20023;-81
2021/08/25 02:20:18;;;;;;;8.73;7.22;;;14.10;99.90;;;;;;6175974;28;20577;-83
2021/08/25 02:23:19;;;;;;;8.00;7.20;;;;;;;;;;6158554;28;20058;-80
2021/08/25 02:26:20;;;;;;;7.82;7.03;;;;;;;;;;6175701;28;20078;-80
2021/08/25 02:29:20;;;;;;;12.98;11.63;;;14.20;99.90;;;;;;6175657;28;20023;-83
2021/08/25 02:32:25;;;;;;;9.60;7.75;;;14.60;99.90;;;;;;6175410;28;20050;-80
2021/08/25 02:35:26;;;;;;;9.07;8.13;;;14.20;99.90;;;;;;6175152;28;20026;-80
2021/08/25 02:38:26;;;;;;;8.18;7.38;;;14.20;99.90;;;;;;6175452;28;20053;-79
2021/08/25 02:41:27;;;;;;;8.20;7.40;;;14.30;99.90;;;;;;6175362;28;20034;-84
2021/08/25 02:44:28;;;;;;;7.63;6.63;;;;;;;;;;6175539;28;20026;-80
2021/08/25 02:47:28;;;;;;;7.97;7.10;;;14.60;99.90;;;;;;6175071;28;20073;-81
2021/08/25 02:50:29;;;;;;;8.80;7.38;;;14.50;99.90;;;;;;6175131;28;20054;-81
2021/08/25 02:53:29;;;;;;;8.57;7.78;;;14.60;99.90;;;;;;6174899;28;20082;-86
2021/08/25 02:56:30;;;;;;;7.80;7.00;;;14.50;99.90;;;;;;6175293;28;20441;-80
2021/08/25 02:59:30;;;;;;;7.70;6.90;;;14.50;99.90;;;;;;6175001;28;20428;-82
2021/08/25 03:02:31;;;;;;;8.20;7.40;;;14.90;99.90;;;;;;6158051;28;20027;-80
2021/08/25 03:05:31;;;;;;;6.80;6.20;;;14.80;99.90;;;;;;6175105;28;20102;-83
2021/08/25 03:08:36;;;;;;;8.15;6.55;;;15.00;99.90;;;;;;6175136;28;20037;-84
2021/08/25 03:11:36;;;;;;;7.82;6.90;;;15.00;99.90;;;;;;6157479;28;20019;-80
2021/08/25 03:14:37;;;;;;;7.95;7.15;;;15.10;99.90;;;;;;6175254;28;20046;-80
2021/08/25 03:17:38;;;;;;;7.70;7.00;;;15.10;99.90;;;;;;6175360;28;20027;-82
2021/08/25 03:20:38;;;;;;;7.22;6.00;;;15.10;99.90;;;;;;6157691;28;20027;-82
2021/08/25 03:23:39;;;;;;;7.38;6.68;;;15.10;99.90;;;;;;6141452;28;20113;-83
2021/08/25 03:26:39;;;;;;;7.60;6.85;;;15.20;99.90;;;;;;6157913;28;20046;-83
2021/08/25 03:29:40;;;;;;;7.63;6.78;;;15.10;99.90;;;;;;6175138;28;20034;-82
2021/08/25 03:32:40;;;;;;;7.07;6.38;;;15.00;99.90;;;;;;6174441;28;20377;-83
2021/08/25 03:35:41;;;;;;;8.40;7.10;;;15.30;99.90;;;;;;6174953;28;20023;-80
2021/08/25 03:38:42;;;;;;;6.80;6.10;;;15.20;99.90;;;;;;6132471;29;20051;-80
2021/08/25 03:41:43;;;;;;;7.10;6.40;;;15.40;99.90;;;;;;6148341;29;20062;-80
2021/08/25 03:44:43;;;;;;;5.85;5.25;;;15.20;99.90;;;;;;6148311;29;20050;-81
2021/08/25 03:47:44;;;;;;;5.88;5.28;;;15.40;99.90;;;;;;6149866;29;20362;-79
2021/08/25 03:50:45;;;;;;;5.70;5.10;;;;;;;;;;6149689;29;20027;-81
2021/08/25 03:53:46;;;;;;;5.32;4.82;;;;;;;;;;6149745;29;20051;-81
2021/08/25 03:56:47;;;;;;;5.88;5.25;;;;;;;;;;6149412;28;20031;-82
2021/08/25 03:59:47;;;;;;;5.50;5.00;;;15.80;99.90;;;;;;6149347;29;20094;-82
2021/08/25 04:02:48;;;;;;;6.22;5.13;;;15.60;99.90;;;;;;6149392;29;20046;-84
2021/08/25 04:05:49;;;;;;;6.07;5.35;;;15.70;99.90;;;;;;6150132;28;20027;-84
2021/08/25 04:08:49;;;;;;;5.38;4.88;;;16.00;99.90;;;;;;6153289;29;20449;-80
2021/08/25 04:11:50;;;;;;;5.95;5.35;;;15.70;99.90;;;;;;6152080;29;20074;-84
2021/08/25 04:14:50;;;;;;;7.65;5.25;;;15.70;99.90;;;;;;6153359;28;20026;-80
2021/08/25 04:17:51;;;;;;;6.18;5.57;;;;;;;;;;6153427;28;20504;-79
2021/08/25 04:20:52;;;;;;;6.50;5.90;;;15.20;99.90;;;;;;6153219;28;20031;-80
2021/08/25 04:23:53;;;;;;;7.32;5.88;;;15.20;99.90;;;;;;6152976;29;20044;-81
2021/08/25 04:26:53;;;;;;;6.80;6.20;;;15.00;99.90;;;;;;6151846;28;20465;-80
2021/08/25 04:29:54;;;;;;;6.15;5.55;;;15.20;99.90;;;;;;6153335;29;20086;-81
2021/08/25 04:32:55;;;;;;;7.05;6.32;;;;;;;;;;6153016;29;20062;-79
2021/08/25 04:35:55;;;;;;;6.55;5.32;;;15.30;99.90;;;;;;6153235;29;20034;-82
2021/08/25 04:38:56;;;;;;;6.47;5.88;;;15.30;99.90;;;;;;6115136;29;1094681;-81
2021/08/25 04:41:57;;;;;;;6.78;5.75;;;15.20;99.90;;;;;;6153005;28;20043;-79
2021/08/25 04:44:58;;;;;;;6.65;5.95;;;15.20;99.90;;;;;;6153011;28;20039;-84
2021/08/25 04:47:59;;;;;;;6.40;5.80;;;;;;;;;;6154398;28;20027;-85
2021/08/25 04:50:59;;;;;;;6.25;5.05;;;15.30;99.90;;;;;;6152894;29;20030;-80
2021/08/25 04:54:00;;;;;;;6.13;5.53;;;15.30;99.90;;;;;;6153881;29;20106;-83
2021/08/25 04:57:00;;;;;;;6.93;5.47;;;15.40;99.90;;;;;;6154125;29;20027;-80
2021/08/25 05:00:01;;;;;;;6.03;5.43;;;15.40;99.90;;;;;;6153893;28;20023;-82
2021/08/25 05:03:01;;;;;;;5.70;5.20;;;15.50;99.90;;;;;;6153954;28;20079;-83
2021/08/25 05:06:07;;;;;;;5.68;5.03;;;15.50;99.90;;;;;;6153849;29;20019;-84
2021/08/25 05:09:07;;;;;;;6.22;5.63;;;15.60;99.90;;;;;;6153709;28;20031;-79
2021/08/25 05:12:08;;;;;;;5.80;5.20;;;15.80;99.90;;;;;;6153674;28;20035;-78
2021/08/25 05:15:09;;;;;;;6.43;5.38;;;15.60;99.90;;;;;;6152514;29;20027;-79
2021/08/25 05:18:09;;;;;;;6.07;5.03;;;15.60;99.90;;;;;;6136436;29;20054;-80
2021/08/25 05:21:10;;;;;;;5.93;5.20;;;15.50;99.90;;;;;;6153479;28;20024;-81
2021/08/25 05:24:11;;;;;;;5.60;5.00;;;;;;;;;;6153452;29;20485;-81
2021/08/25 05:27:11;;;;;;;6.22;5.63;;;15.70;99.90;;;;;;6153080;29;20086;-82
2021/08/25 05:30:12;;;;;;;5.72;5.13;;;15.80;99.90;;;;;;6153591;29;20031;-83
2021/08/25 05:33:31;;;;;;;5.82;5.22;;;15.00;99.90;;;;;;6153146;28;20026;-81
2021/08/25 05:36:32;;;;;;;5.90;5.25;;;15.90;99.90;;;;;;6153257;29;20409;-82
2021/08/25 05:39:32;;;;;;;5.78;4.97;;;16.00;99.90;;;;;;6173275;28;20086;-85
2021/08/25 05:42:33;;;;;;;5.30;4.75;;;16.00;99.90;;;;;;6159577;28;20067;-80
2021/08/25 05:45:34;;;;;;;5.43;4.70;;;;;;;;;;6176653;28;20023;-82
2021/08/25 05:48:34;;;;;;;5.10;4.22;;;16.00;99.90;;;;;;6159416;28;20439;-83
2021/08/25 05:51:35;;;;;;;4.75;4.25;;;16.10;99.90;;;;;;6159401;28;20027;-82
2021/08/25 05:54:35;;;;;;;5.88;4.75;;;16.10;99.90;;;;;;6176590;28;20027;-81
2021/08/25 05:57:42;;;;;;;5.78;5.03;;;;;;;;;;6159132;28;20128;-79
2021/08/25 06:00:43;;;;;;;4.80;4.30;;;16.00;99.90;;;;;;6176701;28;20023;-81
2021/08/25 06:04:08;;;;;;;5.20;4.70;;;16.00;99.90;;;;;;6176301;28;20038;-79
2021/08/25 06:07:12;;;;;;;4.65;4.18;;;17.80;99.90;;;;;;6176434;28;20042;-82
2021/08/25 06:10:12;;;;;;;5.50;4.60;;;16.10;99.90;;;;;;6176125;28;20026;-81
2021/08/25 06:13:13;;;;;;;4.68;4.28;;;16.10;99.90;;;;;;6142669;28;20031;-79
2021/08/25 06:16:13;;;;;;;5.03;4.53;;;16.20;99.90;;;;;;6175962;28;20023;-82
2021/08/25 06:19:14;;;;;;;4.95;4.45;;;16.30;99.90;;;;;;6175849;28;20050;-79
2021/08/25 06:22:14;;;;;;;4.88;4.38;;;16.40;99.90;;;;;;6176055;28;20030;-79
2021/08/25 06:25:15;;;;;;;6.78;4.70;;;16.70;99.90;;;;;;6158641;28;20026;-79
2021/08/25 06:28:16;;;;;;;4.72;4.30;;;16.70;99.90;;;;;;6158038;28;20035;-84
2021/08/25 06:31:17;;;;;;;4.20;3.80;;;;;;;;;;6158535;28;20037;-80
2021/08/25 06:34:17;;;;;;;4.40;3.95;;;18.40;99.90;;;;;;6175787;28;20026;-85
2021/08/25 06:37:18;;;;;;;4.82;4.25;;;19.50;99.90;;;;;;6175355;28;20029;-80
2021/08/25 06:40:18;;;;;;;5.03;3.90;;;20.60;99.50;;;;;;6175838;28;20031;-81
2021/08/25 06:43:19;;;;;;;4.03;3.60;;;21.00;97.80;;;;;;6175567;28;20026;-79
2021/08/25 06:46:20;;;;;;;4.82;4.38;;;20.40;97.00;;;;;;6175196;28;20439;-80
2021/08/25 06:49:20;;;;;;;4.65;4.20;;;19.60;99.90;;;;;;6158272;28;20033;-82
2021/08/25 06:52:21;;;;;;;5.50;4.63;;;19.60;98.10;;;;;;6175176;28;20081;-80
2021/08/25 06:55:21;;;;;;;4.55;3.95;;;19.60;98.60;;;;;;6158208;28;20027;-79
2021/08/25 06:58:24;;;;;;;5.13;4.63;;;20.20;98.20;;;;;;6142128;28;20038;-84
2021/08/25 07:01:25;;;;;;;3.97;3.47;;;20.40;96.50;;;;;;6157904;28;20027;-83
2021/08/25 07:04:26;;;;;;;6.80;4.22;;;20.70;97.10;;;;;;6157878;28;20042;-82
2021/08/25 07:07:26;;;;;;;4.28;3.88;;;20.70;96.00;;;;;;6157857;28;20449;-81
2021/08/25 07:10:27;;;;;;;4.15;3.67;;;20.80;96.30;;;;;;6175197;28;20050;-79
2021/08/25 07:13:27;;;;;;;3.80;3.50;;;20.70;95.70;;;;;;6157546;28;20054;-82
2021/08/25 07:16:33;;;;;;;3.83;3.42;;;21.40;95.20;;;;;;6157492;28;20378;-81
2021/08/25 07:19:34;;;;;;;4.80;4.30;;;21.50;95.30;;;;;;6158368;28;20019;-80
2021/08/25 07:22:34;;;;;;;5.05;3.42;;;21.30;94.60;;;;;;6157854;28;20038;-84
2021/08/25 07:25:35;;;;;;;4.25;3.75;;;20.70;94.10;;;;;;6175028;28;20059;-81
2021/08/25 07:28:36;;;;;;;4.75;3.80;;;;;;;;;;6174901;28;20343;-79
2021/08/25 07:31:36;;;;;;;4.28;3.88;;;20.00;93.50;;;;;;6174653;28;20058;-84
2021/08/25 07:34:37;;;;;;;3.95;3.53;;;20.30;95.90;;;;;;6157736;28;20057;-81
2021/08/25 07:41:06;;;;;;;4.30;3.90;;;;;;;;;;6162638;28;20114;-84
2021/08/25 07:44:07;;;;;;;5.07;3.60;;;;;;;;;;6179614;28;20049;-80
2021/08/25 07:47:08;;;;;;;4.70;3.60;;;20.00;94.20;;;;;;6148735;28;20432;-82
2021/08/25 07:50:09;;;;;;;4.03;3.63;;;19.90;96.00;;;;;;6179541;28;20026;-81
2021/08/25 07:53:09;;;;;;;4.13;3.67;;;20.30;95.20;;;;;;6179510;28;20476;-79
2021/08/25 07:56:10;;;;;;;4.03;3.63;;;20.40;95.20;;;;;;6179561;28;20440;-85
2021/08/25 07:59:10;;;;;;;4.00;3.58;;;20.10;95.30;;;;;;6179350;28;20031;-80
2021/08/25 08:02:11;;;;;;;5.47;3.90;;;19.60;95.70;;;;;;6179039;28;20074;-79
2021/08/25 08:05:12;;;;;;;6.60;3.92;;;19.60;96.00;;;;;;6178887;28;20022;-79
2021/08/25 08:08:12;;;;;;;4.90;4.03;;;19.40;96.70;;;;;;6179041;28;20027;-85
2021/08/25 08:11:13;;;;;;;5.22;3.97;;;19.20;96.60;;;;;;6178877;28;20369;-80
2021/08/25 08:14:14;;;;;;;4.65;4.13;;;19.50;96.70;;;;;;6161831;28;20026;-79
2021/08/25 08:17:16;;;;;;;5.45;4.10;;;20.20;96.10;;;;;;6161681;28;20027;-86
2021/08/25 08:20:16;;;;;;;5.13;3.65;;;21.70;99.90;;;;;;6178755;28;20022;-79
2021/08/25 08:23:17;;;;;;;5.25;3.55;;;21.80;94.00;;;;;;6161595;28;20403;-81
2021/08/25 08:26:18;;;;;;;4.28;3.78;;;22.80;92.80;;;;;;6178823;28;20368;-85
2021/08/25 08:29:18;;;;;;;3.83;3.28;;;24.10;91.30;;;;;;6161477;28;20027;-83
2021/08/25 08:32:19;;;;;;;4.10;3.65;;;24.60;86.00;;;;;;6178889;28;20473;-79
2021/08/25 08:35:19;;;;;;;4.72;3.40;;;24.20;85.70;;;;;;6178605;28;20023;-83
2021/08/25 08:38:20;;;;;;;4.93;3.42;;;24.40;86.10;;;;;;6178238;28;20067;-79
2021/08/25 08:41:20;;;;;;;3.50;3.20;;;23.70;85.40;;;;;;6178529;28;20034;-81
2021/08/25 08:44:21;;;;;;;4.75;4.10;;;23.10;86.40;;;;;;6178225;28;20097;-82
2021/08/25 08:47:25;;;;;;;3.90;3.30;;;22.90;96.90;;;;;;6160839;28;20023;-81
2021/08/25 08:50:26;;;;;;;5.32;3.75;;;22.90;88.50;;;;;;6160871;28;20027;-81
2021/08/25 08:53:27;;;;;;;5.47;4.30;;;22.60;88.40;;;;;;6177966;28;20030;-86
2021/08/25 08:56:27;;;;;;;4.28;3.78;;;22.80;89.30;;;;;;6144749;28;20038;-81
2021/08/25 08:59:28;;;;;;;3.83;3.40;;;;;;;;;;6177783;28;20082;-81
2021/08/25 09:02:43;;;;;;;3.60;3.30;;;24.10;82.20;;;;;;6178026;28;20031;-85
2021/08/25 09:05:43;;;;;;;3.80;3.10;;;24.40;84.00;;;;;;6178078;28;20081;-82
2021/08/25 09:08:44;;;;;;;3.80;3.17;;;25.00;82.80;;;;;;6144651;28;20035;-81
2021/08/25 09:11:49;;;;;;;4.60;2.88;;;24.10;80.60;;;;;;6160275;28;20021;-80
2021/08/25 09:14:50;;;;;;;4.38;3.20;;;23.50;81.50;;;;;;6144364;28;20034;-80
2021/08/25 09:18:04;;;;;;;3.77;3.10;;;23.50;82.50;;;;;;6177407;28;20015;-81
2021/08/25 09:21:05;;;;;;;3.80;3.42;;;24.50;93.10;;;;;;6177421;28;20269;-85
2021/08/25 09:24:06;;;;;;;3.95;3.55;;;24.40;79.70;;;;;;6160105;28;20035;-82
2021/08/25 09:27:16;;;;;;;4.17;3.77;;;23.50;93.50;;;;;;6159866;28;20449;-81
2021/08/25 09:30:23;;;;;;;4.65;3.50;;;23.60;76.70;;;;;;6159773;28;20022;-84
2021/08/25 09:33:29;;;;;;;3.70;3.30;;;23.70;81.60;;;;;;6128393;28;20487;-81
2021/08/25 09:36:29;;;;;;;4.85;3.30;;;23.90;77.80;;;;;;6177234;28;20505;-80
2021/08/25 09:39:30;;;;;;;6.57;3.35;;;24.20;78.70;;;;;;6159641;28;20047;-83
2021/08/25 09:42:41;;;;;;;3.28;2.97;;;24.60;77.70;;;;;;6177266;28;20034;-83
2021/08/25 09:45:41;;;;;;;3.92;3.35;;;25.00;76.20;;;;;;6176594;28;20860;-81
2021/08/25 09:48:46;;;;;;;5.20;3.10;;;25.00;79.20;;;;;;6143497;28;20023;-80
2021/08/25 09:51:47;;;;;;;3.53;3.22;;;25.80;73.40;;;;;;6159284;28;20026;-84
2021/08/25 09:55:14;;;;;;;3.30;2.93;;;25.90;73.50;;;;;;6159256;28;20031;-80
2021/08/25 09:58:15;;;;;;;4.68;3.60;;;26.60;73.60;;;;;;6156628;28;20052;-80
2021/08/25 10:01:19;;;;;;;4.30;3.13;;;26.60;71.90;;;;;;6159482;28;20027;-81
2021/08/25 10:04:19;;;;;;;4.00;3.60;;;27.20;70.70;;;;;;6175413;28;20061;-80
2021/08/25 10:07:20;;;;;;;3.60;3.30;;;27.50;69.10;;;;;;6158918;28;20030;-82
2021/08/25 10:10:20;;;;;;;3.97;3.17;;;26.60;67.70;;;;;;6159085;28;20120;-83
2021/08/25 10:13:21;;;;;;;3.37;3.07;;;26.70;68.30;;;;;;6176386;28;20027;-80
2021/08/25 10:16:39;;;;;;;4.57;3.97;;;26.70;68.30;;;;;;6158878;28;20667;-81
2021/08/25 10:19:40;;;;;;;4.28;3.53;;;27.10;67.90;;;;;;6176224;28;20077;-83
2021/08/25 10:22:47;;;;;;;5.63;3.50;;;27.80;83.40;;;;;;6175899;28;20039;-83
2021/08/25 10:26:09;;;;;;;3.35;3.05;;;27.80;66.50;;;;;;6176005;28;20038;-80
2021/08/25 10:29:11;;;;;;;3.55;3.25;;;28.60;66.90;;;;;;6158696;28;20027;-84
2021/08/25 10:32:12;;;;;;;3.95;3.45;;;28.20;61.20;;;;;;6159051;28;20034;-80
2021/08/25 10:35:16;;;;;;;4.60;3.50;;;27.90;63.00;;;;;;6174543;28;20453;-84
2021/08/25 10:38:22;;;;;;;4.25;3.70;;;27.40;64.10;;;;;;6175545;28;20042;-82
2021/08/25 10:41:23;;;;;;;4.82;3.55;;;27.50;63.30;;;;;;6175475;28;20035;-80
2021/08/25 10:44:49;;;;;;;4.00;3.40;;;27.80;64.80;;;;;;6142120;28;20031;-81
2021/08/25 10:48:00;;;;;;;6.28;4.13;;;27.80;61.30;;;;;;6175359;28;20878;-81
2021/08/25 10:51:01;;;;;;;4.60;3.67;;;28.00;65.60;;;;;;6142182;28;20452;-80
2021/08/25 10:54:06;;;;;;;3.88;3.53;;;28.20;60.30;;;;;;6175436;28;20033;-84
2021/08/25 10:57:11;;;;;;;4.60;3.88;;;28.10;59.90;;;;;;6158310;28;20432;-80
2021/08/25 11:00:12;;;;;;;3.92;3.20;;;27.80;59.10;;;;;;6159216;28;20023;-82
2021/08/25 11:03:33;;;;;;;4.43;3.90;;;27.30;61.40;;;;;;6159088;28;20462;-83
2021/08/25 11:07:09;;;;;;;4.65;3.40;;;26.40;62.50;;;;;;6158476;28;20033;-81
2021/08/25 11:10:10;;;;;;;4.07;3.67;;;26.00;63.10;;;;;;6156713;28;20065;-80
2021/08/25 11:13:10;;;;;;;4.17;3.70;;;26.00;62.70;;;;;;6174744;28;20018;-85
2021/08/25 11:16:26;;;;;;;3.90;3.50;;;26.50;61.30;;;;;;6157527;28;20029;-80
2021/08/25 11:19:29;;;;;;;4.50;3.85;;;27.20;63.20;;;;;;6141474;28;20516;-80
2021/08/25 11:22:32;;;;;;;4.55;3.42;;;27.40;59.60;;;;;;6141823;28;20134;-80
2021/08/25 11:25:32;;;;;;;4.63;3.72;;;26.70;60.70;;;;;;6174608;28;20041;-84
2021/08/25 11:28:33;;;;;;;4.90;3.73;;;;;;;;;;6174885;28;20027;-83
2021/08/25 11:31:34;;;;;;;4.83;3.63;;;26.30;60.80;;;;;;6174737;28;20058;-84
2021/08/25 11:34:34;;;;;;;5.10;3.20;;;26.30;61.30;;;;;;6175089;28;20090;-86
2021/08/25 11:37:35;;;;;;;5.00;3.13;;;26.00;62.70;;;;;;6157197;28;20162;-80
2021/08/25 11:40:37;;;;;;;5.20;3.40;;;25.50;63.10;;;;;;6141723;28;20069;-84
2021/08/25 11:43:48;;;;;;;4.55;3.70;;;25.60;64.30;;;;;;6157498;28;20098;-84
2021/08/25 11:46:48;;;;;;;3.40;3.10;;;25.50;65.00;;;;;;6157684;28;20078;-83
2021/08/25 11:49:51;;;;;;;3.57;3.27;;;25.90;65.00;;;;;;6174943;28;20449;-87
2021/08/25 11:52:52;;;;;;;4.25;3.70;;;26.40;80.30;;;;;;6157929;28;20026;-85
2021/08/25 11:55:54;;;;;;;5.33;3.80;;;26.30;63.60;;;;;;6157441;28;20046;-80
2021/08/25 11:59:22;;;;;;;4.25;3.65;;;25.90;62.00;;;;;;6157158;28;20026;-79
2021/08/25 12:02:22;;;;;;;3.78;3.30;;;26.00;65.70;;;;;;6171923;28;20083;-84
2021/08/25 12:05:27;;;;;;;4.13;3.40;;;26.50;64.70;;;;;;6174451;28;20025;-80
2021/08/25 12:08:37;;;;;;;5.57;3.80;;;26.30;61.10;;;;;;6174700;28;20022;-80
2021/08/25 12:11:58;;;;;;;3.53;3.22;;;25.70;62.20;;;;;;6174516;28;20027;-83
2021/08/25 12:14:59;;;;;;;8.48;3.60;;;;;;;;;;6156640;28;20070;-85
2021/08/25 12:18:03;;;;;;;4.53;3.20;;;25.00;79.40;;;;;;6141158;28;20026;-81
2021/08/25 12:21:08;;;;;;;4.70;3.63;;;25.00;65.10;;;;;;6173971;28;20093;-85
2021/08/25 12:24:10;;;;;;;3.90;3.50;;;24.80;65.50;;;;;;6174300;28;20254;-79
2021/08/25 12:27:10;;;;;;;;;;;24.80;65.20;;;;;;6159893;28;20019;-83
2021/08/25 12:30:12;;;;;;;4.20;3.25;;;24.90;66.00;;;;;;6178853;28;20242;-81
2021/08/25 12:33:25;;;;;;;;;;;24.90;63.50;;;;;;6161687;28;20062;-82
2021/08/25 12:36:27;;;;;;;5.43;3.85;;;24.70;65.00;;;;;;6178537;28;20017;-82
2021/08/25 12:39:28;;;;;;;4.15;3.60;;;24.80;63.90;;;;;;6178001;28;20047;-81
2021/08/25 12:42:29;;;;;;;3.58;3.10;;;24.80;83.80;;;;;;6178258;28;20366;-83
2021/08/25 12:45:29;;;;;;;4.30;3.90;;;24.80;66.40;;;;;;6178284;28;20023;-79
2021/08/25 12:48:30;;;;;;;4.20;3.67;;;25.00;65.90;;;;;;6178201;28;20023;-82
2021/08/25 12:51:31;;;;;;;5.77;3.80;;;25.20;64.60;;;;;;6160737;28;20023;-82
2021/08/25 12:54:31;;;;;;;4.60;3.60;;;25.40;65.60;;;;;;6160845;28;20468;-83
2021/08/25 12:57:32;;;;;;;4.63;3.50;;;25.80;65.30;;;;;;6160643;28;20035;-81
2021/08/25 13:00:38;;;;;;;3.83;3.13;;;25.80;62.60;;;;;;6160972;28;20023;-80
2021/08/25 13:03:38;;;;;;;4.85;3.53;;;25.70;65.10;;;;;;6177822;28;20042;-82
2021/08/25 13:06:39;;;;;;;4.60;3.60;;;26.20;62.40;;;;;;6160447;28;20034;-84
2021/08/25 13:09:39;;;;;;;4.27;3.33;;;25.70;61.70;;;;;;6160105;28;20468;-81
2021/08/25 13:12:40;;;;;;;6.93;4.17;;;25.60;64.20;;;;;;6178228;28;20381;-79
2021/08/25 13:15:41;;;;;;;5.07;3.60;;;25.30;62.90;;;;;;6160455;28;20019;-80
2021/08/25 13:18:42;;;;;;;5.93;3.60;;;25.30;62.70;;;;;;6160243;28;20022;-79
2021/08/25 13:21:43;;;;;;;4.30;3.63;;;;;;;;;;6160056;28;20031;-80
2021/08/25 13:24:43;;;;;;;4.65;3.42;;;25.30;58.90;;;;;;6177447;28;20046;-82
2021/08/25 13:27:44;;;;;;;4.70;3.00;;;25.10;64.10;;;;;;6177502;28;20118;-80
2021/08/25 13:30:45;;;;;;;5.53;3.30;;;25.00;62.40;;;;;;6177080;28;20027;-84
2021/08/25 13:33:45;;;;;;;3.73;3.40;;;;;;;;;;6143777;28;20027;-80
2021/08/25 13:36:46;;;;;;;9.27;4.07;;;24.70;60.00;;;;;;6159047;28;20110;-80
2021/08/25 13:39:47;;;;;;;3.60;3.20;;;24.80;64.30;;;;;;6176325;28;20050;-81
2021/08/25 13:42:47;;;;;;;5.50;3.83;;;24.80;63.90;;;;;;6176660;28;20125;-80
2021/08/25 13:45:48;;;;;;;4.57;3.67;;;24.90;63.20;;;;;;6159635;28;20544;-83
2021/08/25 13:48:48;;;;;;;5.00;3.57;;;25.10;79.80;;;;;;6143345;28;20029;-83
2021/08/25 13:51:49;;;;;;;5.03;3.27;;;25.30;63.40;;;;;;6176796;28;20031;-83
2021/08/25 13:54:50;;;;;;;5.80;3.60;;;25.20;63.10;;;;;;6159333;28;20030;-81
2021/08/25 13:57:50;;;;;;;5.73;3.90;;;25.00;62.00;;;;;;6159035;28;20022;-81
2021/08/25 14:00:51;;;;;;;4.57;3.63;;;25.00;62.80;;;;;;6176268;28;20476;-81
2021/08/25 14:03:51;;;;;;;4.20;3.30;;;25.40;62.70;;;;;;6176623;28;20030;-79
2021/08/25 14:06:52;;;;;;;7.87;3.80;;;25.20;65.00;;;;;;6176409;28;20029;-82
2021/08/25 14:09:53;;;;;;;4.23;3.83;;;25.00;65.50;;;;;;6159116;28;20452;-80
2021/08/25 14:12:54;;;;;;;4.97;4.47;;;;;;;;;;6159300;28;20461;-80
2021/08/25 14:15:54;;;;;;;5.33;3.57;;;24.80;63.80;;;;;;6175902;28;20041;-80
2021/08/25 14:18:55;;;;;;;6.33;4.10;;;24.80;63.90;;;;;;6176648;28;20030;-80
2021/08/25 14:21:55;;;;;;;4.30;3.63;;;24.60;66.50;;;;;;6176257;28;20027;-80
2021/08/25 14:24:56;;;;;;;4.13;3.73;;;24.20;67.10;;;;;;6176602;28;20019;-83
2021/08/25 14:27:56;;;;;;;5.33;4.10;;;23.90;67.10;;;;;;6162037;28;20026;-81
2021/08/25 14:30:57;;;;;;;5.03;3.70;;;24.20;69.00;;;;;;6158964;28;20027;-83
2021/08/25 14:33:58;;;;;;;5.60;3.70;;;24.40;68.00;;;;;;6176390;28;20509;-83
2021/08/25 14:36:58;;;;;;;4.33;3.57;;;24.30;66.70;;;;;;6175988;28;20071;-82
2021/08/25 14:39:59;;;;;;;4.30;3.90;;;24.20;66.30;;;;;;6175219;28;20497;-80
2021/08/25 14:42:59;;;;;;;3.90;3.40;;;24.40;66.00;;;;;;6158197;28;20450;-83
2021/08/25 14:46:00;;;;;;;4.83;3.70;;;24.40;65.00;;;;;;6176172;28;20019;-81
2021/08/25 14:49:00;;;;;;;4.63;3.70;;;24.40;66.10;;;;;;6157371;28;20019;-81
2021/08/25 14:52:02;;;;;;;5.83;3.80;;;24.40;65.40;;;;;;6175416;28;20023;-82
2021/08/25 14:55:03;;;;;;;6.28;3.97;;;24.40;66.80;;;;;;6158072;28;20093;-82
2021/08/25 14:58:03;;;;;;;6.10;4.33;;;24.30;65.50;;;;;;6175338;28;20027;-83
2021/08/25 15:01:04;;;;;;;4.80;4.03;;;24.30;66.40;;;;;;6175328;28;20023;-82
2021/08/25 15:04:04;;;;;;;4.23;3.83;;;24.10;66.10;;;;;;6175210;28;20045;-84
2021/08/25 15:07:05;;;;;;;5.07;3.77;;;24.10;65.80;;;;;;6175097;28;20023;-84
2021/08/25 15:10:06;;;;;;;6.40;3.80;;;24.00;66.40;;;;;;6157960;28;20100;-81
2021/08/25 15:13:07;;;;;;;4.15;3.50;;;;;;;;;;6175125;28;20034;-82
2021/08/25 15:16:28;;;;;;;4.20;3.80;;;24.00;63.00;;;;;;6157634;28;20034;-80
2021/08/25 15:19:28;;;;;;;5.55;4.65;;;23.90;65.00;;;;;;6175185;28;20376;-82
2021/08/25 15:22:29;;;;;;;7.20;4.57;;;23.90;68.50;;;;;;6174827;28;20097;-80
2021/08/25 15:25:29;;;;;;;5.03;3.80;;;23.80;67.40;;;;;;6141554;28;20049;-80
2021/08/25 15:28:30;;;;;;;4.97;3.93;;;23.80;67.10;;;;;;6175479;28;20018;-80
2021/08/25 15:31:31;;;;;;;6.33;4.37;;;23.90;66.60;;;;;;6157091;28;20026;-82
2021/08/25 15:34:32;;;;;;;4.65;4.10;;;23.80;65.40;;;;;;6157516;28;20022;-81
2021/08/25 15:37:32;;;;;;;4.30;3.90;;;23.70;65.40;;;;;;6174634;28;20525;-82
2021/08/25 15:40:33;;;;;;;5.60;3.60;;;23.90;65.50;;;;;;6174488;28;20458;-80
2021/08/25 15:43:33;;;;;;;3.73;3.40;;;24.00;64.00;;;;;;6174664;28;20039;-84
2021/08/25 15:46:34;;;;;;;6.57;4.57;;;24.20;66.00;;;;;;6174602;28;20022;-81
2021/08/25 15:49:35;;;;;;;5.30;4.30;;;24.40;65.60;;;;;;6157092;28;20372;-85
2021/08/25 15:52:37;;;;;;;4.60;3.90;;;24.50;66.30;;;;;;6174410;28;20037;-81
2021/08/25 15:55:37;;;;;;;6.18;3.92;;;24.60;65.60;;;;;;6157431;28;20049;-82
2021/08/25 15:58:38;;;;;;;4.67;3.73;;;24.40;65.20;;;;;;6174392;28;20031;-81
2021/08/25 16:01:38;;;;;;;6.60;4.73;;;24.40;65.80;;;;;;6176557;28;20058;-84